Welcome to Northern Hawkes Bay. New Zealand.
PWS Header
      nz Flag



Hit Counter


W3C Valid W3C Valid logo


    Wairoa

Select any of the Stations below to visit their websites.










Historic Data from Weather Underground
Select the location of interest below. Wairoa is the default. Please have patience, this Data is slow to load in.
Northern Hawkes Bay Historical Data
Daily Summary for July 7, 2017 Units:  Metric    English   Both
« Previous Day
Next Day »
Daily Weekly Monthly Yearly Custom
  High: Low: Average:
Temperature: 12.7 °C 8.1 °C 10.5 °C
Dew Point: 10.4 °C 5.6 °C 8.4 °C
Humidity: 99% 68% 87%
Wind Speed: 14.8km/h 0.0km/h 4.3km/h
Wind Gust: 24.5km/h - -
Wind- - SSE
Pressure: 1009.4 hPa 1005.0 hPa -
Precipitation: 8.9 mm    
Historical Graphs
 
 
Tabular Data for July 7, 2017
Time Temperature Dew Point Pressure Wind Wind Speed Wind Gust Humidity Rainfall Rate (Hourly) solar
00:03 8.1 °C 7.9 °C 1009.4 hPa NNE 2.6 km/h 3.5 km/h 99% 0.5 mm 0 W/m2
00:08 8.1 °C 7.9 °C 1009.4 hPa NE 2.6 km/h 3.5 km/h 99% 0.5 mm 0 W/m2
00:13 8.1 °C 7.9 °C 1009.4 hPa Calm   3.5 km/h 99% 0.5 mm 0 W/m2
00:18 8.1 °C 7.9 °C 1009.4 hPa Calm   3.5 km/h 99% 1.0 mm 0 W/m2
00:23 8.1 °C 7.9 °C 1008.7 hPa Calm   2.6 km/h 99% 1.0 mm 0 W/m2
00:40 8.1 °C 7.9 °C 1008.7 hPa North 2.6 km/h 3.5 km/h 99% 0.5 mm 0 W/m2
00:45 8.1 °C 7.9 °C 1008.7 hPa North 1.1 km/h 3.5 km/h 99% 0.3 mm 0 W/m2
00:50 8.1 °C 7.9 °C 1008.4 hPa Calm   3.5 km/h 99% 0.3 mm 0 W/m2
00:55 8.1 °C 7.9 °C 1008.4 hPa Calm   2.6 km/h 99% 0.3 mm 0 W/m2
01:00 8.1 °C 7.9 °C 1008.4 hPa North 1.1 km/h 2.6 km/h 99% 0.3 mm 0 W/m2
01:05 8.1 °C 7.9 °C 1008.4 hPa North 1.1 km/h 3.5 km/h 99% 0.3 mm 0 W/m2
01:10 8.1 °C 7.9 °C 1008.4 hPa North 2.6 km/h 3.5 km/h 99% 0.3 mm 0 W/m2
01:15 8.1 °C 7.9 °C 1008.4 hPa NNW 1.1 km/h 3.5 km/h 99% 0.0 mm 0 W/m2
01:20 8.1 °C 7.9 °C 1008.0 hPa NNW 2.6 km/h 5.0 km/h 99% 0.0 mm 0 W/m2
01:25 8.2 °C 8.1 °C 1008.0 hPa Calm   5.0 km/h 99% 0.0 mm 0 W/m2
01:30 8.2 °C 8.1 °C 1008.0 hPa Calm   3.5 km/h 99% 0.0 mm 0 W/m2
01:35 8.2 °C 8.1 °C 1008.0 hPa Calm   2.6 km/h 99% 0.0 mm 0 W/m2
01:40 8.2 °C 8.1 °C 1007.7 hPa Calm   2.6 km/h 99% 0.0 mm 0 W/m2
01:45 8.2 °C 8.1 °C 1007.7 hPa NNE 1.1 km/h 2.6 km/h 99% 0.0 mm 0 W/m2
01:50 8.2 °C 8.1 °C 1008.0 hPa Calm   2.6 km/h 99% 0.0 mm 0 W/m2
01:55 8.2 °C 8.1 °C 1007.7 hPa NNW 1.1 km/h 2.6 km/h 99% 0.0 mm 0 W/m2
02:00 8.2 °C 8.1 °C 1007.7 hPa Calm   2.6 km/h 99% 0.0 mm 0 W/m2
02:05 8.2 °C 8.1 °C 1007.3 hPa North 1.1 km/h 2.6 km/h 99% 0.0 mm 0 W/m2
02:10 8.3 °C 8.2 °C 1007.3 hPa North 2.6 km/h 3.5 km/h 99% 0.0 mm 0 W/m2
02:15 8.3 °C 8.2 °C 1007.3 hPa North 1.1 km/h 3.5 km/h 99% 0.0 mm 0 W/m2
02:20 8.3 °C 8.2 °C 1007.3 hPa North 2.6 km/h 3.5 km/h 99% 0.0 mm 0 W/m2
02:25 8.3 °C 8.2 °C 1007.3 hPa NNW 3.5 km/h 5.0 km/h 99% 0.0 mm 0 W/m2
02:30 8.3 °C 8.2 °C 1007.3 hPa NNW 2.6 km/h 5.0 km/h 99% 0.3 mm 0 W/m2
02:35 8.2 °C 8.1 °C 1007.3 hPa NNW 1.1 km/h 5.0 km/h 99% 0.3 mm 0 W/m2
02:40 8.2 °C 8.1 °C 1007.0 hPa North 1.1 km/h 5.0 km/h 99% 0.3 mm 0 W/m2
02:46 8.2 °C 8.1 °C 1007.0 hPa North 1.1 km/h 3.5 km/h 99% 0.5 mm 0 W/m2
02:51 8.2 °C 8.1 °C 1006.7 hPa Calm   3.5 km/h 99% 0.5 mm 0 W/m2
02:56 8.2 °C 8.1 °C 1007.0 hPa Calm   3.5 km/h 99% 1.0 mm 0 W/m2
03:01 8.2 °C 8.1 °C 1006.7 hPa Calm   2.6 km/h 99% 1.0 mm 0 W/m2
03:06 8.3 °C 8.2 °C 1006.7 hPa North 3.5 km/h 5.0 km/h 99% 1.0 mm 0 W/m2
03:11 8.3 °C 8.2 °C 1006.7 hPa North 1.1 km/h 5.0 km/h 99% 1.3 mm 0 W/m2
03:16 8.3 °C 8.2 °C 1006.7 hPa North 1.1 km/h 5.0 km/h 99% 1.5 mm 0 W/m2
03:21 8.3 °C 8.2 °C 1006.7 hPa North 1.1 km/h 3.5 km/h 99% 1.5 mm 0 W/m2
03:26 8.3 °C 8.2 °C 1006.3 hPa Calm   3.5 km/h 99% 1.5 mm 0 W/m2
03:31 8.3 °C 8.2 °C 1006.3 hPa North 1.1 km/h 3.5 km/h 99% 1.3 mm 0 W/m2
03:36 8.4 °C 8.3 °C 1006.0 hPa Calm   3.5 km/h 99% 1.3 mm 0 W/m2
03:41 8.4 °C 8.3 °C 1006.0 hPa Calm   2.6 km/h 99% 1.3 mm 0 W/m2
03:46 8.4 °C 8.3 °C 1006.0 hPa NNW 1.1 km/h 2.6 km/h 99% 1.3 mm 0 W/m2
03:51 8.4 °C 8.3 °C 1005.6 hPa North 1.1 km/h 2.6 km/h 99% 1.3 mm 0 W/m2
03:56 8.4 °C 8.3 °C 1006.0 hPa Calm   2.6 km/h 99% 1.0 mm 0 W/m2
04:01 8.4 °C 8.3 °C 1006.0 hPa Calm   5.0 km/h 99% 1.0 mm 0 W/m2
04:06 8.4 °C 8.3 °C 1005.6 hPa NNW 1.1 km/h 5.0 km/h 99% 1.0 mm 0 W/m2
04:11 8.4 °C 8.3 °C 1006.0 hPa NNW 1.1 km/h 5.0 km/h 99% 1.0 mm 0 W/m2
04:16 8.4 °C 8.3 °C 1005.6 hPa Calm   5.0 km/h 99% 0.5 mm 0 W/m2
04:21 8.5 °C 8.3 °C 1005.6 hPa NNE 1.1 km/h 5.0 km/h 99% 0.5 mm 0 W/m2
04:26 8.4 °C 8.3 °C 1006.0 hPa North 3.5 km/h 6.1 km/h 99% 0.5 mm 0 W/m2
04:31 8.5 °C 8.3 °C 1005.6 hPa NNW 1.1 km/h 6.1 km/h 99% 0.5 mm 0 W/m2
04:36 8.5 °C 8.3 °C 1005.6 hPa NNW 3.5 km/h 6.1 km/h 99% 0.5 mm 0 W/m2
04:41 8.4 °C 8.3 °C 1005.6 hPa NW 2.6 km/h 6.1 km/h 99% 0.5 mm 0 W/m2
04:46 8.4 °C 8.3 °C 1005.3 hPa Calm   6.1 km/h 99% 0.3 mm 0 W/m2
04:51 8.4 °C 8.3 °C 1005.3 hPa NNW 1.1 km/h 5.0 km/h 99% 0.5 mm 0 W/m2
04:56 8.4 °C 8.3 °C 1005.3 hPa NW 1.1 km/h 6.1 km/h 99% 0.5 mm 0 W/m2
05:01 8.5 °C 8.3 °C 1005.3 hPa Calm   6.1 km/h 99% 0.5 mm 0 W/m2
05:06 8.5 °C 8.3 °C 1005.3 hPa Calm   3.5 km/h 99% 0.5 mm 0 W/m2
05:11 8.5 °C 8.3 °C 1005.3 hPa Calm   3.5 km/h 99% 0.3 mm 0 W/m2
05:16 8.6 °C 8.4 °C 1005.3 hPa North 1.1 km/h 6.1 km/h 99% 0.5 mm 0 W/m2
05:21 9.6 °C 9.4 °C 1005.3 hPa East 2.6 km/h 13.4 km/h 99% 0.5 mm 0 W/m2
05:26 9.9 °C 9.8 °C 1005.3 hPa ESE 2.6 km/h 13.4 km/h 99% 0.5 mm 0 W/m2
05:31 10.0 °C 9.8 °C 1005.3 hPa SE 7.2 km/h 9.7 km/h 99% 1.0 mm 0 W/m2
05:36 10.1 °C 9.9 °C 1005.3 hPa ESE 6.1 km/h 15.8 km/h 99% 1.0 mm 0 W/m2
05:41 10.2 °C 10.1 °C 1005.3 hPa ESE 11.1 km/h 17.2 km/h 99% 1.3 mm 0 W/m2
05:46 10.2 °C 10.1 °C 1005.0 hPa SE 6.1 km/h 17.2 km/h 99% 1.3 mm 0 W/m2
05:51 10.2 °C 10.1 °C 1005.3 hPa SE 6.1 km/h 17.2 km/h 99% 1.0 mm 0 W/m2
05:56 10.2 °C 10.1 °C 1005.3 hPa ESE 6.1 km/h 15.8 km/h 99% 1.0 mm 0 W/m2
06:01 10.2 °C 10.1 °C 1005.3 hPa ESE 13.4 km/h 18.3 km/h 99% 1.0 mm 0 W/m2
06:06 10.3 °C 10.2 °C 1005.0 hPa ESE 12.2 km/h 19.5 km/h 99% 1.3 mm 0 W/m2
06:11 10.4 °C 10.3 °C 1005.3 hPa ESE 13.4 km/h 23.3 km/h 99% 1.3 mm 0 W/m2
06:16 10.5 °C 10.3 °C 1005.0 hPa ESE 12.2 km/h 23.3 km/h 99% 1.0 mm 0 W/m2
06:21 10.6 °C 10.4 °C 1005.3 hPa ESE 7.2 km/h 20.9 km/h 99% 1.3 mm 0 W/m2
06:26 10.6 °C 10.4 °C 1005.3 hPa ESE 5.0 km/h 15.8 km/h 99% 1.3 mm 0 W/m2
06:31 10.6 °C 10.4 °C 1005.3 hPa SE 5.0 km/h 15.8 km/h 99% 1.3 mm 0 W/m2
06:36 10.7 °C 10.4 °C 1005.3 hPa ESE 2.6 km/h 15.8 km/h 98% 1.3 mm 0 W/m2
06:41 10.7 °C 10.2 °C 1005.3 hPa SE 7.2 km/h 17.2 km/h 97% 1.0 mm 0 W/m2
06:46 10.7 °C 10.2 °C 1005.3 hPa ESE 3.5 km/h 17.2 km/h 97% 1.3 mm 0 W/m2
06:51 10.7 °C 10.1 °C 1005.3 hPa ESE 6.1 km/h 14.8 km/h 96% 1.3 mm 0 W/m2
06:56 10.8 °C 10.2 °C 1005.3 hPa SE 5.0 km/h 14.8 km/h 96% 1.3 mm 0 W/m2
07:01 10.7 °C 9.9 °C 1005.3 hPa ESE 8.7 km/h 15.8 km/h 95% 1.3 mm 0 W/m2
07:06 10.8 °C 10.1 °C 1005.3 hPa ESE 8.7 km/h 15.8 km/h 95% 1.3 mm 0 W/m2
07:11 10.7 °C 9.8 °C 1005.3 hPa SE 8.7 km/h 18.3 km/h 94% 1.3 mm 0 W/m2
07:16 10.8 °C 9.9 °C 1005.3 hPa SE 8.7 km/h 18.3 km/h 94% 1.3 mm 0 W/m2
07:21 10.8 °C 9.9 °C 1005.6 hPa ESE 8.7 km/h 15.8 km/h 94% 1.3 mm 0 W/m2
07:26 10.8 °C 9.9 °C 1005.3 hPa ESE 8.7 km/h 17.2 km/h 94% 1.3 mm 0 W/m2
07:31 10.9 °C 9.8 °C 1005.3 hPa ESE 2.6 km/h 17.2 km/h 93% 1.0 mm 0 W/m2
07:36 10.8 °C 9.7 °C 1005.6 hPa ESE 2.6 km/h 14.8 km/h 93% 1.3 mm 0 W/m2
07:41 10.8 °C 9.9 °C 1005.3 hPa ESE 5.0 km/h 13.4 km/h 94% 1.3 mm 0 W/m2
07:46 10.7 °C 9.8 °C 1005.6 hPa ESE 3.5 km/h 11.1 km/h 94% 1.0 mm 0 W/m2
07:51 10.7 °C 9.8 °C 1005.6 hPa ESE 2.6 km/h 8.7 km/h 94% 1.3 mm 0 W/m2
07:56 10.6 °C 9.7 °C 1005.6 hPa ESE 2.6 km/h 6.1 km/h 94% 1.3 mm 0 W/m2
08:01 10.6 °C 9.8 °C 1005.6 hPa ESE 3.5 km/h 7.2 km/h 95% 1.5 mm 0 W/m2
08:06 10.7 °C 9.9 °C 1005.6 hPa ESE 1.1 km/h 7.2 km/h 95% 1.3 mm 0 W/m2
08:11 10.7 °C 9.9 °C 1005.6 hPa SE 2.6 km/h 8.7 km/h 95% 1.5 mm 1 W/m2
08:16 10.7 °C 10.1 °C 1005.6 hPa ESE 3.5 km/h 8.7 km/h 96% 1.5 mm 1 W/m2
08:21 10.7 °C 10.1 °C 1005.6 hPa ESE 2.6 km/h 8.7 km/h 96% 1.3 mm 1 W/m2
08:26 10.7 °C 10.1 °C 1005.6 hPa Calm   7.2 km/h 96% 1.5 mm 1 W/m2
08:31 10.6 °C 10.0 °C 1005.6 hPa ESE 3.5 km/h 9.7 km/h 96% 1.3 mm 2 W/m2
08:36 10.6 °C 10.0 °C 1005.6 hPa SE 5.0 km/h 9.7 km/h 96% 1.3 mm 3 W/m2
08:41 10.6 °C 10.0 °C 1005.6 hPa SE 2.6 km/h 9.7 km/h 96% 1.3 mm 4 W/m2
08:46 10.6 °C 10.0 °C 1005.6 hPa SE 3.5 km/h 8.7 km/h 96% 1.3 mm 5 W/m2
08:51 10.6 °C 10.0 °C 1006.0 hPa SE 3.5 km/h 9.7 km/h 96% 1.3 mm 7 W/m2
08:56 10.6 °C 10.0 °C 1005.6 hPa SE 3.5 km/h 9.7 km/h 96% 1.3 mm 7 W/m2
09:01 10.6 °C 10.0 °C 1006.0 hPa SE 6.1 km/h 8.7 km/h 96% 1.0 mm 10 W/m2
09:06 10.6 °C 10.0 °C 1006.0 hPa ESE 2.6 km/h 8.7 km/h 96% 1.0 mm 13 W/m2
09:24 10.7 °C 10.2 °C 1006.0 hPa SE 3.5 km/h 11.1 km/h 97% 0.5 mm 17 W/m2
09:29 10.6 °C 10.2 °C 1006.0 hPa SE 3.5 km/h 11.1 km/h 97% 1.0 mm 18 W/m2
09:34 10.6 °C 10.2 °C 1006.3 hPa ESE 3.5 km/h 9.7 km/h 97% 1.0 mm 19 W/m2
09:39 10.6 °C 10.2 °C 1006.3 hPa ESE 6.1 km/h 9.7 km/h 97% 1.0 mm 20 W/m2
09:44 10.6 °C 10.2 °C 1006.3 hPa SE 2.6 km/h 11.1 km/h 97% 1.0 mm 22 W/m2
09:49 10.6 °C 10.2 °C 1006.3 hPa SE 5.0 km/h 11.1 km/h 97% 1.0 mm 23 W/m2
09:54 10.6 °C 10.2 °C 1006.3 hPa SE 2.6 km/h 11.1 km/h 97% 1.0 mm 25 W/m2
09:59 10.6 °C 10.2 °C 1006.3 hPa SE 5.0 km/h 12.2 km/h 97% 1.0 mm 26 W/m2
10:04 10.6 °C 10.2 °C 1006.3 hPa SE 5.0 km/h 12.2 km/h 97% 1.0 mm 30 W/m2
10:09 10.6 °C 10.2 °C 1006.7 hPa SE 3.5 km/h 8.7 km/h 97% 0.5 mm 32 W/m2
10:14 10.7 °C 10.2 °C 1006.7 hPa SE 2.6 km/h 8.7 km/h 97% 1.0 mm 34 W/m2
10:19 10.7 °C 10.2 °C 1006.3 hPa SE 5.0 km/h 9.7 km/h 97% 1.0 mm 36 W/m2
10:24 10.7 °C 10.2 °C 1006.7 hPa SE 3.5 km/h 9.7 km/h 97% 1.0 mm 34 W/m2
10:29 10.6 °C 10.2 °C 1006.7 hPa SE 7.2 km/h 12.2 km/h 97% 0.5 mm 34 W/m2
10:34 10.6 °C 10.2 °C 1006.3 hPa SE 2.6 km/h 12.2 km/h 97% 0.5 mm 36 W/m2
10:39 10.7 °C 10.2 °C 1006.7 hPa SE 2.6 km/h 12.2 km/h 97% 1.0 mm 36 W/m2
10:44 10.7 °C 10.2 °C 1006.7 hPa SE 8.7 km/h 12.2 km/h 97% 1.0 mm 38 W/m2
10:49 10.7 °C 10.2 °C 1006.7 hPa ESE 3.5 km/h 12.2 km/h 97% 0.5 mm 43 W/m2
10:54 10.8 °C 10.2 °C 1006.7 hPa ESE 1.1 km/h 12.2 km/h 96% 0.5 mm 52 W/m2
11:00 10.8 °C 10.2 °C 1006.7 hPa ESE 3.5 km/h 6.1 km/h 96% 0.5 mm 63 W/m2
11:06 10.9 °C 10.3 °C 1006.7 hPa ESE 2.6 km/h 8.7 km/h 96% 0.5 mm 72 W/m2
11:11 10.9 °C 10.3 °C 1006.3 hPa ESE 1.1 km/h 8.7 km/h 96% 0.5 mm 77 W/m2
11:27 11.1 °C 10.2 °C 1006.3 hPa SE 5.0 km/h 8.7 km/h 94% 0.3 mm 94 W/m2
11:32 11.1 °C 10.0 °C 1006.3 hPa ESE 3.5 km/h 9.7 km/h 93% 0.3 mm 95 W/m2
11:37 11.2 °C 10.1 °C 1006.3 hPa ESE 3.5 km/h 11.1 km/h 93% 0.0 mm 96 W/m2
11:42 11.3 °C 10.2 °C 1006.3 hPa ESE 5.0 km/h 11.1 km/h 93% 0.0 mm 102 W/m2
11:47 11.3 °C 10.1 °C 1006.3 hPa East 2.6 km/h 8.7 km/h 92% 0.0 mm 108 W/m2
11:52 11.5 °C 10.2 °C 1006.3 hPa ESE 5.0 km/h 8.7 km/h 92% 0.0 mm 113 W/m2
11:57 11.5 °C 10.2 °C 1006.3 hPa SE 11.1 km/h 14.8 km/h 92% 0.0 mm 118 W/m2
12:02 11.4 °C 9.8 °C 1006.3 hPa ESE 8.7 km/h 14.8 km/h 90% 0.0 mm 127 W/m2
12:07 11.4 °C 9.7 °C 1006.3 hPa ESE 5.0 km/h 14.8 km/h 89% 0.0 mm 126 W/m2
12:12 11.6 °C 9.8 °C 1006.3 hPa ESE 3.5 km/h 12.2 km/h 89% 0.0 mm 129 W/m2
12:17 11.7 °C 10.1 °C 1006.3 hPa ESE 3.5 km/h 9.7 km/h 90% 0.3 mm 128 W/m2
12:22 11.8 °C 10.2 °C 1006.0 hPa SE 5.0 km/h 8.7 km/h 90% 0.3 mm 147 W/m2
12:27 11.9 °C 10.2 °C 1006.3 hPa SE 3.5 km/h 8.7 km/h 89% 0.3 mm 141 W/m2
12:32 11.9 °C 10.2 °C 1006.0 hPa SE 5.0 km/h 8.7 km/h 89% 0.3 mm 155 W/m2
12:37 11.9 °C 9.8 °C 1006.0 hPa ESE 6.1 km/h 11.1 km/h 87% 0.3 mm 162 W/m2
12:43 11.9 °C 9.6 °C 1006.0 hPa East 2.6 km/h 11.1 km/h 86% 0.3 mm 153 W/m2
12:48 12.1 °C 9.7 °C 1006.0 hPa ESE 3.5 km/h 12.2 km/h 85% 0.3 mm 157 W/m2
12:53 12.1 °C 9.5 °C 1006.0 hPa East 5.0 km/h 12.2 km/h 84% 0.3 mm 175 W/m2
12:58 12.2 °C 9.4 °C 1006.0 hPa East 8.7 km/h 12.2 km/h 83% 0.3 mm 160 W/m2
13:03 12.1 °C 9.1 °C 1006.0 hPa East 5.0 km/h 11.1 km/h 82% 0.3 mm 137 W/m2
13:08 12.0 °C 8.8 °C 1006.0 hPa ESE 8.7 km/h 11.1 km/h 81% 0.3 mm 117 W/m2
13:13 11.9 °C 8.9 °C 1005.6 hPa East 5.0 km/h 12.2 km/h 82% 0.3 mm 124 W/m2
13:18 12.0 °C 8.5 °C 1005.6 hPa East 1.1 km/h 12.2 km/h 79% 0.0 mm 135 W/m2
13:23 12.2 °C 8.7 °C 1005.6 hPa East 6.1 km/h 8.7 km/h 79% 0.0 mm 139 W/m2
13:28 12.3 °C 8.6 °C 1005.6 hPa East 5.0 km/h 8.7 km/h 78% 0.0 mm 143 W/m2
13:33 12.2 °C 8.5 °C 1005.6 hPa ENE 7.2 km/h 11.1 km/h 78% 0.0 mm 121 W/m2
13:38 12.1 °C 8.2 °C 1005.6 hPa East 6.1 km/h 11.1 km/h 77% 0.0 mm 107 W/m2
13:43 12.0 °C 8.1 °C 1005.6 hPa East 3.5 km/h 9.7 km/h 77% 0.0 mm 89 W/m2
13:48 12.1 °C 8.2 °C 1005.6 hPa East 1.1 km/h 9.7 km/h 77% 0.0 mm 77 W/m2
13:53 12.1 °C 8.0 °C 1005.6 hPa ESE 2.6 km/h 5.0 km/h 76% 0.0 mm 81 W/m2
13:58 12.2 °C 7.9 °C 1005.6 hPa Calm   5.0 km/h 75% 0.0 mm 76 W/m2
14:03 12.3 °C 8.2 °C 1005.6 hPa SE 2.6 km/h 5.0 km/h 76% 0.0 mm 91 W/m2
14:08 12.4 °C 8.1 °C 1005.6 hPa SE 1.1 km/h 5.0 km/h 75% 0.0 mm 99 W/m2
14:13 12.6 °C 8.1 °C 1005.6 hPa South 2.6 km/h 5.0 km/h 74% 0.0 mm 96 W/m2
14:18 12.7 °C 8.0 °C 1005.6 hPa South 2.6 km/h 5.0 km/h 73% 0.0 mm 98 W/m2
14:23 12.7 °C 8.0 °C 1005.3 hPa SSE 3.5 km/h 5.0 km/h 73% 0.0 mm 93 W/m2
14:28 12.7 °C 8.0 °C 1005.6 hPa South 2.6 km/h 5.0 km/h 73% 0.0 mm 85 W/m2
14:33 12.6 °C 8.1 °C 1005.6 hPa South 6.1 km/h 11.1 km/h 74% 0.0 mm 83 W/m2
14:38 12.4 °C 7.9 °C 1005.6 hPa South 5.0 km/h 12.2 km/h 74% 0.0 mm 75 W/m2
14:43 12.3 °C 8.2 °C 1005.6 hPa SSE 11.1 km/h 14.8 km/h 76% 0.0 mm 70 W/m2
14:48 12.2 °C 8.1 °C 1005.6 hPa SSE 9.7 km/h 15.8 km/h 76% 0.0 mm 66 W/m2
14:53 12.1 °C 8.0 °C 1005.6 hPa SSE 9.7 km/h 21.9 km/h 76% 0.0 mm 63 W/m2
14:58 12.1 °C 8.0 °C 1005.6 hPa SSE 8.7 km/h 21.9 km/h 76% 0.0 mm 66 W/m2
15:03 12.0 °C 8.1 °C 1006.0 hPa South 7.2 km/h 20.9 km/h 77% 0.0 mm 73 W/m2
15:09 12.1 °C 8.2 °C 1006.0 hPa SSE 2.6 km/h 20.9 km/h 77% 0.0 mm 75 W/m2
15:14 12.1 °C 8.0 °C 1006.0 hPa SSE 8.7 km/h 17.2 km/h 76% 0.0 mm 72 W/m2
15:19 12.0 °C 7.9 °C 1006.0 hPa SSE 11.1 km/h 21.9 km/h 76% 0.0 mm 67 W/m2
15:24 12.0 °C 7.9 °C 1006.0 hPa SSE 6.1 km/h 21.9 km/h 76% 0.0 mm 62 W/m2
15:29 11.9 °C 8.2 °C 1006.0 hPa SSE 11.1 km/h 21.9 km/h 78% 0.0 mm 59 W/m2
15:32 11.9 °C 8.2 °C 1006.0 hPa South 13.4 km/h 21.9 km/h 78% 0.0 mm 57 W/m2
15:38 11.6 °C 8.3 °C 1006.0 hPa South 14.8 km/h 24.5 km/h 80% 0.0 mm 36 W/m2
15:43 11.4 °C 8.3 °C 1006.0 hPa South 11.1 km/h 24.5 km/h 81% 0.0 mm 26 W/m2
15:48 11.1 °C 7.8 °C 1006.3 hPa South 11.1 km/h 20.9 km/h 80% 0.0 mm 21 W/m2
15:53 10.9 °C 8.1 °C 1006.3 hPa South 8.7 km/h 19.5 km/h 83% 0.0 mm 21 W/m2
15:58 10.8 °C 8.1 °C 1006.3 hPa SSW 5.0 km/h 15.8 km/h 83% 0.0 mm 19 W/m2
16:03 10.6 °C 8.0 °C 1006.3 hPa SW 11.1 km/h 15.8 km/h 84% 0.0 mm 16 W/m2
16:08 10.8 °C 8.1 °C 1006.3 hPa WSW 7.2 km/h 15.8 km/h 83% 0.0 mm 5 W/m2
16:13 10.6 °C 8.0 °C 1006.3 hPa WSW 3.5 km/h 15.8 km/h 84% 0.0 mm 9 W/m2
16:18 10.6 °C 8.0 °C 1006.3 hPa SSE 6.1 km/h 8.7 km/h 84% 0.0 mm 16 W/m2
16:23 10.9 °C 8.5 °C 1006.3 hPa South 5.0 km/h 18.3 km/h 85% 0.0 mm 16 W/m2
16:28 11.2 °C 8.4 °C 1006.3 hPa SSE 9.7 km/h 18.3 km/h 83% 0.0 mm 11 W/m2
16:33 11.4 °C 8.3 °C 1006.3 hPa SSE 2.6 km/h 15.8 km/h 81% 0.0 mm 9 W/m2
16:38 11.4 °C 8.4 °C 1006.7 hPa SSE 7.2 km/h 15.8 km/h 82% 0.0 mm 6 W/m2
16:43 11.4 °C 8.1 °C 1006.3 hPa South 9.7 km/h 14.8 km/h 80% 0.0 mm 4 W/m2
16:48 11.4 °C 7.9 °C 1006.7 hPa South 9.7 km/h 14.8 km/h 79% 0.0 mm 1 W/m2
16:53 11.5 °C 7.4 °C 1006.3 hPa South 6.1 km/h 15.8 km/h 76% 0.0 mm 0 W/m2
16:58 11.5 °C 7.4 °C 1006.7 hPa South 3.5 km/h 15.8 km/h 76% 0.0 mm 0 W/m2
17:03 11.4 °C 7.3 °C 1006.7 hPa SSE 7.2 km/h 12.2 km/h 76% 0.0 mm 0 W/m2
17:08 11.4 °C 7.3 °C 1006.7 hPa SE 3.5 km/h 12.2 km/h 76% 0.0 mm 0 W/m2
17:13 11.3 °C 7.2 °C 1007.0 hPa SSE 2.6 km/h 9.7 km/h 76% 0.0 mm 0 W/m2
17:18 11.4 °C 7.9 °C 1006.7 hPa SSE 5.0 km/h 15.8 km/h 79% 0.0 mm 0 W/m2
17:23 11.3 °C 7.8 °C 1007.0 hPa SSE 3.5 km/h 15.8 km/h 79% 0.0 mm 0 W/m2
17:28 11.2 °C 7.5 °C 1007.0 hPa SSE 8.7 km/h 14.8 km/h 78% 0.0 mm 0 W/m2
17:33 11.3 °C 7.6 °C 1007.0 hPa SSE 12.2 km/h 15.8 km/h 78% 0.0 mm 0 W/m2
17:38 11.2 °C 7.7 °C 1007.3 hPa SE 3.5 km/h 15.8 km/h 79% 0.0 mm 0 W/m2
17:43 11.1 °C 7.6 °C 1007.0 hPa SSE 6.1 km/h 15.8 km/h 79% 0.0 mm 0 W/m2
17:48 11.1 °C 7.6 °C 1007.3 hPa SSE 7.2 km/h 12.2 km/h 79% 0.0 mm 0 W/m2
17:53 11.2 °C 7.5 °C 1007.3 hPa SSE 6.1 km/h 12.2 km/h 78% 0.0 mm 0 W/m2
17:58 11.3 °C 7.4 °C 1007.3 hPa SSE 2.6 km/h 15.8 km/h 77% 0.0 mm 0 W/m2
18:03 11.3 °C 7.6 °C 1007.3 hPa SSE 7.2 km/h 15.8 km/h 78% 0.0 mm 0 W/m2
18:08 11.3 °C 7.8 °C 1007.3 hPa South 3.5 km/h 17.2 km/h 79% 0.0 mm 0 W/m2
18:13 11.3 °C 7.8 °C 1007.3 hPa SSE 3.5 km/h 17.2 km/h 79% 0.0 mm 0 W/m2
18:18 11.2 °C 7.7 °C 1007.3 hPa SE 3.5 km/h 14.8 km/h 79% 0.0 mm 0 W/m2
18:23 11.1 °C 7.8 °C 1007.3 hPa SE 5.0 km/h 14.8 km/h 80% 0.0 mm 0 W/m2
18:28 11.1 °C 7.8 °C 1007.3 hPa SE 2.6 km/h 11.1 km/h 80% 0.0 mm 0 W/m2
18:33 11.1 °C 7.8 °C 1007.3 hPa SE 3.5 km/h 11.1 km/h 80% 0.0 mm 0 W/m2
18:38 11.1 °C 7.9 °C 1007.3 hPa SE 1.1 km/h 11.1 km/h 81% 0.0 mm 0 W/m2
18:43 10.9 °C 7.9 °C 1007.3 hPa SSE 5.0 km/h 8.7 km/h 82% 0.0 mm 0 W/m2
18:48 11.1 °C 7.8 °C 1007.3 hPa SSE 5.0 km/h 12.2 km/h 80% 0.0 mm 0 W/m2
18:53 11.2 °C 7.3 °C 1007.3 hPa South 3.5 km/h 14.8 km/h 77% 0.0 mm 0 W/m2
18:58 11.2 °C 7.5 °C 1007.7 hPa SSE 2.6 km/h 14.8 km/h 78% 0.0 mm 0 W/m2
19:03 11.1 °C 7.2 °C 1007.3 hPa SE 3.5 km/h 8.7 km/h 77% 0.0 mm 0 W/m2
19:08 11.3 °C 7.2 °C 1007.7 hPa SSE 6.1 km/h 9.7 km/h 76% 0.0 mm 0 W/m2
19:13 11.3 °C 6.8 °C 1007.7 hPa SSE 5.0 km/h 12.2 km/h 74% 0.0 mm 0 W/m2
19:18 11.3 °C 6.7 °C 1007.7 hPa SSE 5.0 km/h 13.4 km/h 73% 0.0 mm 0 W/m2
19:23 11.3 °C 6.8 °C 1007.7 hPa South 9.7 km/h 13.4 km/h 74% 0.0 mm 0 W/m2
19:28 11.4 °C 6.7 °C 1007.7 hPa South 7.2 km/h 13.4 km/h 73% 0.0 mm 0 W/m2
19:33 11.4 °C 6.7 °C 1007.7 hPa SSE 6.1 km/h 13.4 km/h 73% 0.0 mm 0 W/m2
19:38 11.4 °C 6.7 °C 1007.7 hPa SSE 2.6 km/h 12.2 km/h 73% 0.0 mm 0 W/m2
19:43 11.3 °C 6.7 °C 1007.7 hPa SSE 5.0 km/h 12.2 km/h 73% 0.0 mm 0 W/m2
19:48 11.3 °C 6.4 °C 1007.7 hPa SSE 3.5 km/h 11.1 km/h 72% 0.0 mm 0 W/m2
19:53 11.3 °C 6.4 °C 1007.7 hPa SSE 8.7 km/h 12.2 km/h 72% 0.0 mm 0 W/m2
19:58 11.3 °C 6.2 °C 1008.0 hPa SSE 7.2 km/h 13.4 km/h 71% 0.0 mm 0 W/m2
20:03 11.4 °C 5.9 °C 1008.0 hPa SSE 7.2 km/h 13.4 km/h 69% 0.0 mm 0 W/m2
20:08 11.4 °C 6.3 °C 1008.0 hPa SSE 5.0 km/h 14.8 km/h 71% 0.0 mm 0 W/m2
20:13 11.3 °C 6.1 °C 1008.0 hPa SSE 5.0 km/h 14.8 km/h 70% 0.0 mm 0 W/m2
20:18 11.4 °C 5.7 °C 1008.0 hPa SSE 6.1 km/h 14.8 km/h 68% 0.0 mm 0 W/m2
20:23 11.4 °C 5.9 °C 1008.0 hPa South 3.5 km/h 14.8 km/h 69% 0.0 mm 0 W/m2
20:28 11.3 °C 5.8 °C 1008.0 hPa SSE 2.6 km/h 12.2 km/h 69% 0.0 mm 0 W/m2
20:33 11.4 °C 5.9 °C 1008.4 hPa SSE 5.0 km/h 14.8 km/h 69% 0.0 mm 0 W/m2
20:38 11.4 °C 5.9 °C 1008.4 hPa SSE 5.0 km/h 14.8 km/h 69% 0.0 mm 0 W/m2
20:43 11.4 °C 5.7 °C 1008.4 hPa SSE 5.0 km/h 9.7 km/h 68% 0.0 mm 0 W/m2
20:48 11.3 °C 5.6 °C 1008.4 hPa South 3.5 km/h 9.7 km/h 68% 0.0 mm 0 W/m2
20:53 11.4 °C 5.7 °C 1008.4 hPa SSE 2.6 km/h 11.1 km/h 68% 0.0 mm 0 W/m2
20:58 11.3 °C 5.6 °C 1008.4 hPa SSE 1.1 km/h 11.1 km/h 68% 0.0 mm 0 W/m2
21:03 11.2 °C 5.7 °C 1008.4 hPa SSE 6.1 km/h 7.2 km/h 69% 0.0 mm 0 W/m2
21:08 11.2 °C 5.9 °C 1008.4 hPa SSE 3.5 km/h 9.7 km/h 70% 0.0 mm 0 W/m2
21:13 11.2 °C 6.3 °C 1008.4 hPa South 2.6 km/h 9.7 km/h 72% 0.0 mm 0 W/m2
21:18 11.1 °C 6.4 °C 1008.4 hPa South 2.6 km/h 9.7 km/h 73% 0.0 mm 0 W/m2
21:23 11.1 °C 6.7 °C 1008.7 hPa SSE 3.5 km/h 6.1 km/h 74% 0.0 mm 0 W/m2
21:28 11.3 °C 6.8 °C 1008.4 hPa South 5.0 km/h 11.1 km/h 74% 0.0 mm 0 W/m2
21:33 11.3 °C 6.7 °C 1008.4 hPa South 5.0 km/h 11.1 km/h 73% 0.0 mm 0 W/m2
21:38 11.3 °C 6.7 °C 1008.4 hPa SSE 5.0 km/h 11.1 km/h 73% 0.0 mm 0 W/m2
21:43 11.3 °C 6.8 °C 1008.7 hPa SE 3.5 km/h 11.1 km/h 74% 0.0 mm 0 W/m2
21:48 11.3 °C 6.8 °C 1008.7 hPa SSE 5.0 km/h 11.1 km/h 74% 0.0 mm 0 W/m2
21:53 11.3 °C 6.8 °C 1008.7 hPa South 6.1 km/h 12.2 km/h 74% 0.0 mm 0 W/m2
21:58 11.3 °C 6.7 °C 1008.7 hPa SSE 6.1 km/h 12.2 km/h 73% 0.0 mm 0 W/m2
22:03 11.3 °C 6.7 °C 1008.7 hPa SSE 9.7 km/h 13.4 km/h 73% 0.0 mm 0 W/m2
22:08 11.3 °C 6.7 °C 1008.7 hPa SSE 6.1 km/h 13.4 km/h 73% 0.0 mm 0 W/m2
22:13 11.3 °C 6.7 °C 1008.7 hPa South 3.5 km/h 13.4 km/h 73% 0.0 mm 0 W/m2
22:18 11.3 °C 6.4 °C 1008.7 hPa SSE 6.1 km/h 11.1 km/h 72% 0.0 mm 0 W/m2
22:23 11.3 °C 6.4 °C 1008.7 hPa SSE 5.0 km/h 11.1 km/h 72% 0.0 mm 0 W/m2
22:28 11.3 °C 6.4 °C 1009.0 hPa South 6.1 km/h 11.1 km/h 72% 0.0 mm 0 W/m2
22:34 11.3 °C 6.4 °C 1009.0 hPa South 5.0 km/h 9.7 km/h 72% 0.0 mm 0 W/m2
22:40 11.3 °C 6.4 °C 1008.7 hPa South 7.2 km/h 9.7 km/h 72% 0.0 mm 0 W/m2
22:45 11.3 °C 6.4 °C 1008.7 hPa South 5.0 km/h 13.4 km/h 72% 0.0 mm 0 W/m2
22:50 11.3 °C 6.4 °C 1009.0 hPa South 2.6 km/h 13.4 km/h 72% 0.0 mm 0 W/m2
22:55 11.3 °C 6.7 °C 1009.0 hPa South 6.1 km/h 9.7 km/h 73% 0.0 mm 0 W/m2
23:00 11.3 °C 6.4 °C 1009.0 hPa South 2.6 km/h 11.1 km/h 72% 0.0 mm 0 W/m2
23:05 11.3 °C 6.4 °C 1009.0 hPa South 3.5 km/h 11.1 km/h 72% 0.0 mm 0 W/m2
23:10 11.3 °C 6.4 °C 1009.0 hPa South 1.1 km/h 7.2 km/h 72% 0.0 mm 0 W/m2
23:15 11.3 °C 6.4 °C 1009.4 hPa SSW 3.5 km/h 7.2 km/h 72% 0.0 mm 0 W/m2
23:20 10.7 °C 6.8 °C 1009.4 hPa NNW 5.0 km/h 7.2 km/h 77% 0.0 mm 0 W/m2
23:26 10.0 °C 7.1 °C 1009.4 hPa NNE 3.5 km/h 7.2 km/h 82% 0.0 mm 0 W/m2
23:31 9.8 °C 7.4 °C 1009.4 hPa ENE 3.5 km/h 8.7 km/h 85% 0.0 mm 0 W/m2
23:36 9.6 °C 7.4 °C 1009.4 hPa NNE 5.0 km/h 8.7 km/h 86% 0.0 mm 0 W/m2
23:41 9.6 °C 7.6 °C 1009.4 hPa North 2.6 km/h 9.7 km/h 87% 0.0 mm 0 W/m2
23:46 9.7 °C 7.7 °C 1009.4 hPa NNW 3.5 km/h 9.7 km/h 87% 0.0 mm 0 W/m2
23:51 9.7 °C 7.7 °C 1009.4 hPa NNW 3.5 km/h 6.1 km/h 87% 0.0 mm 0 W/m2
23:56 9.6 °C 7.6 °C 1009.4 hPa North 2.6 km/h 6.1 km/h 87% 0.0 mm 0 W/m2
Northern Hawkes Bay. New Zealand Historic Data
Compliments of Weather Underground - 2.25 mb